Terminal Aerodrome Forecast
Issued by NWS Houston/Galveston, TX

Home | Current Version | Previous Version | Text Only | Print | Product List | Glossary On
Versions: 1 2 3 4 5 6 7 8 9 10 11 12 13 14 15 16 17 18 19 20 21 22 23 24 25 26 27 28 29
000
FTUS44 KHGX 262339
TAFGLS
TAF
KGLS 262339Z 2700/2724 14012KT P6SM SCT035 OVC045
     FM270600 12009KT 4SM BR SCT007 BKN015
     FM271400 13010KT 1SM BR VCSH OVC007
     FM272000 21007KT 4SM BR VCTS BKN012CB=

USA.gov is the U.S. government's official web portal to all federal, state and local government web resources and services.